createdAt,value
2022-09-22T00:06:12.044Z,1.85
2022-09-22T00:13:47.711Z,1.90
2022-09-22T00:21:24.624Z,1.95
2022-09-22T00:28:58.648Z,2.20
2022-09-22T00:36:33.870Z,1.80
2022-09-22T00:44:39.615Z,1.92
2022-09-22T00:52:20.461Z,1.98
2022-09-22T00:59:55.475Z,2.22
2022-09-22T01:07:31.910Z,2.03
2022-09-22T01:15:25.310Z,2.50
2022-09-22T01:23:31.861Z,2.35
2022-09-22T01:31:14.136Z,1.90
2022-09-22T01:38:59.538Z,2.53
2022-09-22T01:46:39.074Z,2.30
2022-09-22T01:54:16.438Z,1.98
2022-09-22T02:01:57.234Z,2.13
2022-09-22T02:09:34.816Z,2.20
2022-09-22T02:17:10.104Z,2.20
2022-09-22T02:24:46.127Z,2.03
2022-09-22T02:32:22.382Z,2.13
2022-09-22T02:40:06.986Z,2.05
2022-09-22T02:47:47.159Z,2.10
2022-09-22T02:55:21.184Z,2.00
2022-09-22T03:02:56.429Z,2.60
2022-09-22T03:10:30.014Z,2.22
2022-09-22T03:18:05.196Z,2.53
2022-09-22T03:25:38.912Z,2.85
2022-09-22T03:33:14.048Z,2.55
2022-09-22T03:40:51.894Z,2.50
2022-09-22T03:48:28.780Z,2.20
2022-09-22T03:56:06.689Z,2.33
2022-09-22T04:03:41.919Z,2.40
2022-09-22T04:11:15.513Z,2.20
2022-09-22T04:18:50.506Z,2.10
2022-09-22T04:26:24.650Z,2.60
2022-09-22T04:34:03.084Z,2.37
2022-09-22T04:41:39.138Z,2.15
2022-09-22T04:49:14.852Z,3.20
2022-09-22T04:56:48.537Z,3.20
2022-09-22T05:04:23.631Z,2.83
2022-09-22T05:12:01.312Z,2.25
2022-09-22T05:19:36.628Z,2.33
2022-09-22T05:27:10.291Z,2.13
2022-09-22T05:34:45.481Z,2.85
2022-09-22T05:42:19.128Z,2.20
2022-09-22T05:49:54.557Z,2.85
2022-09-22T05:57:28.324Z,2.17
2022-09-22T06:05:03.598Z,2.70
2022-09-22T06:12:37.168Z,2.90
2022-09-22T06:20:12.702Z,2.40
2022-09-22T06:27:47.238Z,2.78
2022-09-22T06:35:22.665Z,3.33
2022-09-22T06:42:59.937Z,3.10
2022-09-22T06:50:34.990Z,3.42
2022-09-22T06:58:09.539Z,3.85
2022-09-22T07:05:54.338Z,4.10
2022-09-22T07:13:29.820Z,3.90
2022-09-22T07:21:07.128Z,5.28
2022-09-22T07:28:41.587Z,4.40
2022-09-22T07:36:19.704Z,5.15
2022-09-22T07:43:56.126Z,4.72
2022-09-22T07:51:34.075Z,3.80
2022-09-22T07:59:11.097Z,3.90
2022-09-22T08:06:48.671Z,3.55
2022-09-22T08:14:24.093Z,2.25
2022-09-22T08:21:59.470Z,1.98
2022-09-22T08:29:33.124Z,1.50
2022-09-22T08:37:09.436Z,1.63
2022-09-22T08:44:52.939Z,0.73
2022-09-22T08:52:35.105Z,0.80
2022-09-22T09:00:14.632Z,0.75
2022-09-22T09:08:00.231Z,0.95
2022-09-22T09:15:52.873Z,0.93
2022-09-22T09:31:34.322Z,0.40
2022-09-22T09:39:15.587Z,0.60
2022-09-22T09:46:56.024Z,0.95
2022-09-22T09:54:31.093Z,0.40
2022-09-22T10:09:41.024Z,0.70
2022-09-22T10:17:21.843Z,0.75
2022-09-22T10:25:00.087Z,0.30
2022-09-22T10:32:33.742Z,0.40
2022-09-22T10:40:18.218Z,0.57
2022-09-22T10:47:57.760Z,0.30
2022-09-22T10:55:36.786Z,0.43
2022-09-22T11:03:33.432Z,0.35
2022-09-22T11:11:38.801Z,0.30
2022-09-22T11:19:48.884Z,0.90
2022-09-22T11:27:36.467Z,0.40
2022-09-22T11:35:35.099Z,0.40
2022-09-22T11:43:25.217Z,0.40
2022-09-22T11:51:30.724Z,0.38
2022-09-22T11:59:30.967Z,0.43
2022-09-22T12:07:10.355Z,0.50
2022-09-22T12:14:46.256Z,0.35
2022-09-22T12:22:26.408Z,0.50
2022-09-22T12:30:03.454Z,0.30
2022-09-22T12:37:40.180Z,0.30
2022-09-22T12:45:22.597Z,0.50
2022-09-22T12:53:04.018Z,0.40
2022-09-22T13:00:40.919Z,0.40
2022-09-22T13:08:22.719Z,0.30
2022-09-22T13:16:01.627Z,0.40
2022-09-22T13:23:35.435Z,0.40
2022-09-22T13:31:15.261Z,0.50
2022-09-22T13:38:55.053Z,0.50
2022-09-22T13:46:37.735Z,0.55
2022-09-22T13:54:20.535Z,0.47
2022-09-22T14:01:55.759Z,0.40
2022-09-22T14:09:30.432Z,0.50
2022-09-22T14:17:09.727Z,1.13
2022-09-22T14:24:47.459Z,0.50
2022-09-22T14:32:30.148Z,0.50
2022-09-22T14:40:14.273Z,0.38
2022-09-22T14:48:20.696Z,0.40
2022-09-22T14:56:00.303Z,0.30
2022-09-22T15:03:35.731Z,0.47
2022-09-22T15:11:10.444Z,0.45
2022-09-22T15:18:47.924Z,0.55
2022-09-22T15:26:25.427Z,0.65
2022-09-22T15:34:03.172Z,0.70
2022-09-22T15:41:37.511Z,0.50
2022-09-22T15:49:16.817Z,0.33
2022-09-22T15:56:52.540Z,0.60
2022-09-22T16:04:34.342Z,0.50
2022-09-22T16:12:11.155Z,0.50
2022-09-22T16:19:46.300Z,0.50
2022-09-22T16:34:55.193Z,0.60
2022-09-22T16:50:04.118Z,0.47
2022-09-22T16:57:37.940Z,0.50
2022-09-22T17:05:13.078Z,0.60
2022-09-22T17:20:22.001Z,1.15
2022-09-22T17:27:56.342Z,1.30
2022-09-22T17:35:31.484Z,1.60
2022-09-22T17:50:58.449Z,1.30
2022-09-22T17:58:32.106Z,2.13
2022-09-22T18:06:14.573Z,2.15
2022-09-22T18:13:50.627Z,2.10
2022-09-22T18:21:27.021Z,2.45
2022-09-22T18:29:00.890Z,3.90
2022-09-22T18:36:36.862Z,4.43
2022-09-22T18:44:13.265Z,4.32
2022-09-22T18:51:50.577Z,4.57
2022-09-22T18:59:26.643Z,5.55
2022-09-22T19:07:19.328Z,6.00
2022-09-22T19:14:57.279Z,6.22
2022-09-22T19:22:32.398Z,6.95
2022-09-22T19:30:07.089Z,6.75
2022-09-22T19:37:42.493Z,7.70
2022-09-22T19:45:16.468Z,8.18
2022-09-22T19:52:51.892Z,7.85
2022-09-22T20:00:26.838Z,7.90
2022-09-22T20:08:03.684Z,8.13
2022-09-22T20:15:38.342Z,8.30
2022-09-22T20:23:15.899Z,6.97
2022-09-22T20:30:50.473Z,8.35
2022-09-22T20:38:25.821Z,8.73
2022-09-22T20:46:01.994Z,8.13
2022-09-22T20:53:38.138Z,9.20
2022-09-22T21:01:13.529Z,9.57
2022-09-22T21:09:06.527Z,9.20
2022-09-22T21:16:40.568Z,9.63
2022-09-22T21:24:17.281Z,9.97
2022-09-22T21:31:50.986Z,10.20
2022-09-22T21:39:26.119Z,9.73
2022-09-22T21:46:59.971Z,8.95
2022-09-22T21:54:34.984Z,8.45
2022-09-22T22:09:43.947Z,7.22
2022-09-22T22:17:17.638Z,8.35
2022-09-22T22:24:52.858Z,8.68
2022-09-22T22:32:26.494Z,8.02
2022-09-22T22:40:02.000Z,6.30
2022-09-22T22:47:35.686Z,6.95
2022-09-22T22:55:11.233Z,6.57
2022-09-22T23:02:44.841Z,6.00
2022-09-22T23:10:20.185Z,5.82
2022-09-22T23:17:53.946Z,6.13
2022-09-22T23:25:29.119Z,5.95
2022-09-22T23:33:02.762Z,5.22
2022-09-22T23:40:38.487Z,4.65
2022-09-22T23:48:12.318Z,5.45
2022-09-22T23:55:47.582Z,5.38
